sensor_id;sensor_type;location;lat;lon;timestamp;P1;durP1;ratioP1;P2;durP2;ratioP2
7383;SDS011;3733;47.994;8.820;2022-11-27T00:00:20;49.23;;;6.93;;
7383;SDS011;3733;47.994;8.820;2022-11-27T00:02:46;63.60;;;7.30;;
7383;SDS011;3733;47.994;8.820;2022-11-27T00:05:12;72.33;;;7.80;;
7383;SDS011;3733;47.994;8.820;2022-11-27T00:07:38;28.80;;;6.60;;
7383;SDS011;3733;47.994;8.820;2022-11-27T00:10:04;37.67;;;7.30;;
7383;SDS011;3733;47.994;8.820;2022-11-27T00:12:31;38.70;;;6.33;;
7383;SDS011;3733;47.994;8.820;2022-11-27T00:14:56;62.10;;;7.83;;
7383;SDS011;3733;47.994;8.820;2022-11-27T00:17:23;77.13;;;7.27;;
7383;SDS011;3733;47.994;8.820;2022-11-27T00:19:49;48.93;;;7.40;;
7383;SDS011;3733;47.994;8.820;2022-11-27T00:22:14;59.00;;;7.70;;
7383;SDS011;3733;47.994;8.820;2022-11-27T00:24:41;95.90;;;10.10;;
7383;SDS011;3733;47.994;8.820;2022-11-27T00:27:07;36.63;;;7.43;;
7383;SDS011;3733;47.994;8.820;2022-11-27T00:29:33;137.07;;;9.67;;
7383;SDS011;3733;47.994;8.820;2022-11-27T00:31:59;70.97;;;7.27;;
7383;SDS011;3733;47.994;8.820;2022-11-27T00:34:24;54.50;;;7.37;;
7383;SDS011;3733;47.994;8.820;2022-11-27T00:36:50;62.40;;;8.23;;
7383;SDS011;3733;47.994;8.820;2022-11-27T00:39:16;52.20;;;7.37;;
7383;SDS011;3733;47.994;8.820;2022-11-27T00:41:42;78.67;;;7.80;;
7383;SDS011;3733;47.994;8.820;2022-11-27T00:44:07;54.93;;;7.00;;
7383;SDS011;3733;47.994;8.820;2022-11-27T00:46:33;81.97;;;9.80;;
7383;SDS011;3733;47.994;8.820;2022-11-27T00:49:00;46.27;;;6.80;;
7383;SDS011;3733;47.994;8.820;2022-11-27T00:51:27;126.10;;;9.20;;
7383;SDS011;3733;47.994;8.820;2022-11-27T00:53:53;149.73;;;11.47;;
7383;SDS011;3733;47.994;8.820;2022-11-27T00:56:21;30.57;;;5.40;;
7383;SDS011;3733;47.994;8.820;2022-11-27T00:58:49;60.67;;;6.97;;
7383;SDS011;3733;47.994;8.820;2022-11-27T01:01:17;52.43;;;6.40;;
7383;SDS011;3733;47.994;8.820;2022-11-27T01:03:45;68.10;;;7.63;;
7383;SDS011;3733;47.994;8.820;2022-11-27T01:06:11;50.57;;;7.33;;
7383;SDS011;3733;47.994;8.820;2022-11-27T01:08:38;8.10;;;4.90;;
7383;SDS011;3733;47.994;8.820;2022-11-27T01:11:04;21.83;;;5.07;;
7383;SDS011;3733;47.994;8.820;2022-11-27T01:13:32;60.73;;;6.23;;
7383;SDS011;3733;47.994;8.820;2022-11-27T01:18:32;24.37;;;5.53;;
7383;SDS011;3733;47.994;8.820;2022-11-27T01:20:59;39.97;;;6.00;;
7383;SDS011;3733;47.994;8.820;2022-11-27T01:23:25;21.27;;;5.73;;
7383;SDS011;3733;47.994;8.820;2022-11-27T01:25:50;44.77;;;5.93;;
7383;SDS011;3733;47.994;8.820;2022-11-27T01:28:20;46.57;;;7.20;;
7383;SDS011;3733;47.994;8.820;2022-11-27T01:30:47;58.93;;;7.20;;
7383;SDS011;3733;47.994;8.820;2022-11-27T01:33:13;30.63;;;6.03;;
7383;SDS011;3733;47.994;8.820;2022-11-27T01:35:38;66.87;;;7.70;;
7383;SDS011;3733;47.994;8.820;2022-11-27T01:38:04;91.27;;;7.67;;
7383;SDS011;3733;47.994;8.820;2022-11-27T01:40:30;82.03;;;10.17;;
7383;SDS011;3733;47.994;8.820;2022-11-27T01:42:55;65.23;;;6.90;;
7383;SDS011;3733;47.994;8.820;2022-11-27T01:45:21;120.97;;;9.43;;
7383;SDS011;3733;47.994;8.820;2022-11-27T01:47:54;85.37;;;9.13;;
7383;SDS011;3733;47.994;8.820;2022-11-27T01:50:27;109.47;;;9.43;;
7383;SDS011;3733;47.994;8.820;2022-11-27T01:53:02;96.90;;;8.20;;
7383;SDS011;3733;47.994;8.820;2022-11-27T01:55:36;123.13;;;10.07;;
7383;SDS011;3733;47.994;8.820;2022-11-27T01:58:16;158.83;;;9.60;;
7383;SDS011;3733;47.994;8.820;2022-11-27T02:00:49;67.97;;;6.50;;
7383;SDS011;3733;47.994;8.820;2022-11-27T02:03:14;21.17;;;5.70;;
7383;SDS011;3733;47.994;8.820;2022-11-27T02:05:40;64.00;;;6.60;;
7383;SDS011;3733;47.994;8.820;2022-11-27T02:08:07;170.60;;;10.10;;
7383;SDS011;3733;47.994;8.820;2022-11-27T02:10:55;73.20;;;12.23;;
7383;SDS011;3733;47.994;8.820;2022-11-27T02:13:30;92.97;;;7.00;;
7383;SDS011;3733;47.994;8.820;2022-11-27T02:21:22;47.90;;;6.60;;
7383;SDS011;3733;47.994;8.820;2022-11-27T02:30:11;95.43;;;8.30;;
7383;SDS011;3733;47.994;8.820;2022-11-27T02:35:22;49.27;;;7.10;;
7383;SDS011;3733;47.994;8.820;2022-11-27T02:38:14;22.63;;;5.30;;
7383;SDS011;3733;47.994;8.820;2022-11-27T02:40:51;18.87;;;4.83;;
7383;SDS011;3733;47.994;8.820;2022-11-27T02:43:33;102.00;;;8.23;;
7383;SDS011;3733;47.994;8.820;2022-11-27T02:46:01;79.67;;;7.63;;
7383;SDS011;3733;47.994;8.820;2022-11-27T02:48:33;113.40;;;8.53;;
7383;SDS011;3733;47.994;8.820;2022-11-27T02:51:02;65.93;;;6.70;;
7383;SDS011;3733;47.994;8.820;2022-11-27T02:53:30;87.93;;;7.40;;
7383;SDS011;3733;47.994;8.820;2022-11-27T02:56:01;60.23;;;5.93;;
7383;SDS011;3733;47.994;8.820;2022-11-27T02:58:32;98.37;;;9.17;;
7383;SDS011;3733;47.994;8.820;2022-11-27T03:01:00;37.93;;;6.50;;
7383;SDS011;3733;47.994;8.820;2022-11-27T03:03:33;18.33;;;5.17;;
7383;SDS011;3733;47.994;8.820;2022-11-27T03:06:07;105.63;;;7.93;;
7383;SDS011;3733;47.994;8.820;2022-11-27T03:08:48;143.27;;;10.30;;
7383;SDS011;3733;47.994;8.820;2022-11-27T03:11:14;54.73;;;5.60;;
7383;SDS011;3733;47.994;8.820;2022-11-27T03:13:44;54.63;;;5.90;;
7383;SDS011;3733;47.994;8.820;2022-11-27T03:21:43;98.00;;;6.97;;
7383;SDS011;3733;47.994;8.820;2022-11-27T03:24:09;71.97;;;7.50;;
7383;SDS011;3733;47.994;8.820;2022-11-27T03:26:36;100.87;;;8.53;;
7383;SDS011;3733;47.994;8.820;2022-11-27T03:29:03;71.90;;;6.50;;
7383;SDS011;3733;47.994;8.820;2022-11-27T03:31:33;79.43;;;6.23;;
7383;SDS011;3733;47.994;8.820;2022-11-27T03:33:59;84.63;;;7.00;;
7383;SDS011;3733;47.994;8.820;2022-11-27T03:36:25;80.47;;;6.30;;
7383;SDS011;3733;47.994;8.820;2022-11-27T03:38:51;182.03;;;8.30;;
7383;SDS011;3733;47.994;8.820;2022-11-27T03:46:35;58.73;;;5.13;;
7383;SDS011;3733;47.994;8.820;2022-11-27T03:49:32;48.97;;;5.60;;
7383;SDS011;3733;47.994;8.820;2022-11-27T03:52:20;43.57;;;5.57;;
7383;SDS011;3733;47.994;8.820;2022-11-27T03:54:52;20.80;;;4.20;;
7383;SDS011;3733;47.994;8.820;2022-11-27T03:57:46;44.00;;;6.93;;
7383;SDS011;3733;47.994;8.820;2022-11-27T04:00:26;77.20;;;7.73;;
7383;SDS011;3733;47.994;8.820;2022-11-27T04:02:58;66.77;;;7.03;;
7383;SDS011;3733;47.994;8.820;2022-11-27T04:05:26;77.00;;;7.00;;
7383;SDS011;3733;47.994;8.820;2022-11-27T04:07:52;20.60;;;5.23;;
7383;SDS011;3733;47.994;8.820;2022-11-27T04:10:17;106.57;;;7.03;;
7383;SDS011;3733;47.994;8.820;2022-11-27T04:12:43;76.87;;;8.73;;
7383;SDS011;3733;47.994;8.820;2022-11-27T04:15:09;43.63;;;5.57;;
7383;SDS011;3733;47.994;8.820;2022-11-27T04:17:35;34.47;;;5.90;;
7383;SDS011;3733;47.994;8.820;2022-11-27T04:20:00;90.17;;;6.53;;
7383;SDS011;3733;47.994;8.820;2022-11-27T04:22:27;78.70;;;6.47;;
7383;SDS011;3733;47.994;8.820;2022-11-27T04:24:53;85.93;;;6.50;;
7383;SDS011;3733;47.994;8.820;2022-11-27T04:27:18;71.93;;;6.40;;
7383;SDS011;3733;47.994;8.820;2022-11-27T04:29:44;46.37;;;5.87;;
7383;SDS011;3733;47.994;8.820;2022-11-27T04:32:09;51.73;;;6.00;;
7383;SDS011;3733;47.994;8.820;2022-11-27T04:34:35;67.23;;;8.40;;
7383;SDS011;3733;47.994;8.820;2022-11-27T04:37:00;58.97;;;5.77;;
7383;SDS011;3733;47.994;8.820;2022-11-27T04:39:26;29.73;;;4.60;;
7383;SDS011;3733;47.994;8.820;2022-11-27T04:41:51;63.97;;;7.70;;
7383;SDS011;3733;47.994;8.820;2022-11-27T04:44:17;20.63;;;4.73;;
7383;SDS011;3733;47.994;8.820;2022-11-27T04:46:43;30.60;;;4.67;;
7383;SDS011;3733;47.994;8.820;2022-11-27T04:49:09;53.23;;;5.60;;
7383;SDS011;3733;47.994;8.820;2022-11-27T04:51:35;119.10;;;6.70;;
7383;SDS011;3733;47.994;8.820;2022-11-27T04:54:00;68.77;;;5.57;;
7383;SDS011;3733;47.994;8.820;2022-11-27T04:56:26;65.13;;;5.47;;
7383;SDS011;3733;47.994;8.820;2022-11-27T04:58:52;42.93;;;6.00;;
7383;SDS011;3733;47.994;8.820;2022-11-27T05:01:18;103.97;;;8.23;;
7383;SDS011;3733;47.994;8.820;2022-11-27T05:03:45;39.17;;;5.50;;
7383;SDS011;3733;47.994;8.820;2022-11-27T05:06:11;52.60;;;6.00;;
7383;SDS011;3733;47.994;8.820;2022-11-27T05:08:36;11.07;;;4.93;;
7383;SDS011;3733;47.994;8.820;2022-11-27T05:11:06;73.87;;;8.80;;
7383;SDS011;3733;47.994;8.820;2022-11-27T05:13:35;18.10;;;4.33;;
7383;SDS011;3733;47.994;8.820;2022-11-27T05:16:01;83.00;;;6.33;;
7383;SDS011;3733;47.994;8.820;2022-11-27T05:18:27;9.47;;;4.20;;
7383;SDS011;3733;47.994;8.820;2022-11-27T05:20:57;30.67;;;5.30;;
7383;SDS011;3733;47.994;8.820;2022-11-27T05:23:24;6.50;;;4.50;;
7383;SDS011;3733;47.994;8.820;2022-11-27T05:25:50;62.87;;;7.40;;
7383;SDS011;3733;47.994;8.820;2022-11-27T05:28:16;51.87;;;6.40;;
7383;SDS011;3733;47.994;8.820;2022-11-27T05:30:41;146.43;;;9.00;;
7383;SDS011;3733;47.994;8.820;2022-11-27T05:33:07;62.63;;;7.77;;
7383;SDS011;3733;47.994;8.820;2022-11-27T05:35:33;14.80;;;5.20;;
7383;SDS011;3733;47.994;8.820;2022-11-27T05:37:58;26.63;;;6.07;;
7383;SDS011;3733;47.994;8.820;2022-11-27T05:40:24;212.17;;;10.77;;
7383;SDS011;3733;47.994;8.820;2022-11-27T05:42:49;146.47;;;9.87;;
7383;SDS011;3733;47.994;8.820;2022-11-27T05:45:15;59.23;;;7.57;;
7383;SDS011;3733;47.994;8.820;2022-11-27T05:47:41;53.90;;;5.90;;
7383;SDS011;3733;47.994;8.820;2022-11-27T05:50:06;29.90;;;6.47;;
7383;SDS011;3733;47.994;8.820;2022-11-27T05:52:33;131.03;;;8.83;;
7383;SDS011;3733;47.994;8.820;2022-11-27T05:54:58;36.57;;;5.40;;
7383;SDS011;3733;47.994;8.820;2022-11-27T05:57:24;75.87;;;7.80;;
7383;SDS011;3733;47.994;8.820;2022-11-27T05:59:50;46.80;;;6.60;;
7383;SDS011;3733;47.994;8.820;2022-11-27T06:02:15;103.30;;;10.27;;
7383;SDS011;3733;47.994;8.820;2022-11-27T06:04:41;63.23;;;7.60;;
7383;SDS011;3733;47.994;8.820;2022-11-27T06:07:06;61.77;;;7.77;;
7383;SDS011;3733;47.994;8.820;2022-11-27T06:09:32;47.53;;;6.77;;
7383;SDS011;3733;47.994;8.820;2022-11-27T06:11:58;69.70;;;7.90;;
7383;SDS011;3733;47.994;8.820;2022-11-27T06:14:24;49.70;;;7.30;;
7383;SDS011;3733;47.994;8.820;2022-11-27T06:16:49;27.30;;;5.17;;
7383;SDS011;3733;47.994;8.820;2022-11-27T06:19:15;85.97;;;7.17;;
7383;SDS011;3733;47.994;8.820;2022-11-27T06:21:41;100.30;;;8.80;;
7383;SDS011;3733;47.994;8.820;2022-11-27T06:24:06;77.70;;;7.10;;
7383;SDS011;3733;47.994;8.820;2022-11-27T06:26:32;11.10;;;4.37;;
7383;SDS011;3733;47.994;8.820;2022-11-27T06:28:58;36.33;;;5.80;;
7383;SDS011;3733;47.994;8.820;2022-11-27T06:31:26;46.43;;;6.30;;
7383;SDS011;3733;47.994;8.820;2022-11-27T06:33:54;106.83;;;8.07;;
7383;SDS011;3733;47.994;8.820;2022-11-27T06:36:22;10.43;;;5.00;;
7383;SDS011;3733;47.994;8.820;2022-11-27T06:38:50;39.27;;;6.73;;
7383;SDS011;3733;47.994;8.820;2022-11-27T06:41:17;27.20;;;7.00;;
7383;SDS011;3733;47.994;8.820;2022-11-27T06:43:44;45.00;;;7.37;;
7383;SDS011;3733;47.994;8.820;2022-11-27T06:46:13;37.53;;;7.20;;
7383;SDS011;3733;47.994;8.820;2022-11-27T06:48:41;14.30;;;6.10;;
7383;SDS011;3733;47.994;8.820;2022-11-27T06:51:09;34.40;;;6.07;;
7383;SDS011;3733;47.994;8.820;2022-11-27T06:53:37;25.43;;;5.57;;
7383;SDS011;3733;47.994;8.820;2022-11-27T06:56:04;19.40;;;4.40;;
7383;SDS011;3733;47.994;8.820;2022-11-27T06:58:32;7.60;;;4.37;;
7383;SDS011;3733;47.994;8.820;2022-11-27T07:00:58;17.60;;;5.00;;
7383;SDS011;3733;47.994;8.820;2022-11-27T07:03:25;30.93;;;6.20;;
7383;SDS011;3733;47.994;8.820;2022-11-27T07:05:50;28.00;;;5.60;;
7383;SDS011;3733;47.994;8.820;2022-11-27T07:08:16;14.70;;;4.33;;
7383;SDS011;3733;47.994;8.820;2022-11-27T07:10:42;57.70;;;6.20;;
7383;SDS011;3733;47.994;8.820;2022-11-27T07:13:07;30.37;;;5.20;;
7383;SDS011;3733;47.994;8.820;2022-11-27T07:15:33;17.30;;;5.13;;
7383;SDS011;3733;47.994;8.820;2022-11-27T07:17:59;9.83;;;4.20;;
7383;SDS011;3733;47.994;8.820;2022-11-27T07:20:25;26.60;;;5.10;;
7383;SDS011;3733;47.994;8.820;2022-11-27T07:22:51;11.03;;;6.10;;
7383;SDS011;3733;47.994;8.820;2022-11-27T07:25:16;9.37;;;5.40;;
7383;SDS011;3733;47.994;8.820;2022-11-27T07:27:42;44.10;;;7.77;;
7383;SDS011;3733;47.994;8.820;2022-11-27T07:30:08;16.43;;;6.00;;
7383;SDS011;3733;47.994;8.820;2022-11-27T07:32:34;9.13;;;5.50;;
7383;SDS011;3733;47.994;8.820;2022-11-27T07:35:00;8.03;;;5.20;;
7383;SDS011;3733;47.994;8.820;2022-11-27T07:37:28;6.10;;;4.17;;
7383;SDS011;3733;47.994;8.820;2022-11-27T07:39:55;9.80;;;5.23;;
7383;SDS011;3733;47.994;8.820;2022-11-27T07:42:21;8.13;;;5.40;;
7383;SDS011;3733;47.994;8.820;2022-11-27T07:44:46;11.37;;;6.30;;
7383;SDS011;3733;47.994;8.820;2022-11-27T07:47:12;19.10;;;5.57;;
7383;SDS011;3733;47.994;8.820;2022-11-27T07:49:38;11.70;;;5.60;;
7383;SDS011;3733;47.994;8.820;2022-11-27T07:52:03;11.27;;;7.00;;
7383;SDS011;3733;47.994;8.820;2022-11-27T07:54:29;7.60;;;4.43;;
7383;SDS011;3733;47.994;8.820;2022-11-27T07:56:55;10.80;;;5.33;;
7383;SDS011;3733;47.994;8.820;2022-11-27T07:59:20;8.43;;;5.13;;
7383;SDS011;3733;47.994;8.820;2022-11-27T08:01:46;8.10;;;5.27;;
7383;SDS011;3733;47.994;8.820;2022-11-27T08:04:11;11.63;;;5.27;;
7383;SDS011;3733;47.994;8.820;2022-11-27T08:06:37;8.90;;;5.40;;
7383;SDS011;3733;47.994;8.820;2022-11-27T08:09:03;9.20;;;6.37;;
7383;SDS011;3733;47.994;8.820;2022-11-27T08:11:30;10.13;;;5.87;;
7383;SDS011;3733;47.994;8.820;2022-11-27T08:14:00;12.90;;;7.40;;
7383;SDS011;3733;47.994;8.820;2022-11-27T08:16:27;14.87;;;8.80;;
7383;SDS011;3733;47.994;8.820;2022-11-27T08:18:53;10.83;;;6.17;;
7383;SDS011;3733;47.994;8.820;2022-11-27T08:21:19;9.80;;;6.07;;
7383;SDS011;3733;47.994;8.820;2022-11-27T08:23:45;9.90;;;6.00;;
7383;SDS011;3733;47.994;8.820;2022-11-27T08:26:11;10.10;;;5.43;;
7383;SDS011;3733;47.994;8.820;2022-11-27T08:28:37;10.27;;;6.13;;
7383;SDS011;3733;47.994;8.820;2022-11-27T08:31:04;9.03;;;5.80;;
7383;SDS011;3733;47.994;8.820;2022-11-27T08:33:31;7.80;;;5.97;;
7383;SDS011;3733;47.994;8.820;2022-11-27T08:35:57;8.53;;;6.63;;
7383;SDS011;3733;47.994;8.820;2022-11-27T08:38:24;9.23;;;5.80;;
7383;SDS011;3733;47.994;8.820;2022-11-27T08:41:00;11.03;;;6.53;;
7383;SDS011;3733;47.994;8.820;2022-11-27T08:43:27;10.90;;;5.83;;
7383;SDS011;3733;47.994;8.820;2022-11-27T08:45:53;15.37;;;8.87;;
7383;SDS011;3733;47.994;8.820;2022-11-27T08:48:19;11.20;;;7.10;;
7383;SDS011;3733;47.994;8.820;2022-11-27T08:50:46;12.33;;;6.97;;
7383;SDS011;3733;47.994;8.820;2022-11-27T08:53:12;13.10;;;8.23;;
7383;SDS011;3733;47.994;8.820;2022-11-27T08:55:38;9.07;;;5.37;;
7383;SDS011;3733;47.994;8.820;2022-11-27T08:58:04;9.20;;;5.83;;
7383;SDS011;3733;47.994;8.820;2022-11-27T09:00:30;11.40;;;7.80;;
7383;SDS011;3733;47.994;8.820;2022-11-27T09:02:57;15.77;;;9.73;;
7383;SDS011;3733;47.994;8.820;2022-11-27T09:05:23;24.43;;;14.53;;
7383;SDS011;3733;47.994;8.820;2022-11-27T09:07:50;21.13;;;12.47;;
7383;SDS011;3733;47.994;8.820;2022-11-27T09:10:15;17.27;;;11.43;;
7383;SDS011;3733;47.994;8.820;2022-11-27T09:12:41;25.67;;;19.73;;
7383;SDS011;3733;47.994;8.820;2022-11-27T09:15:08;9.83;;;7.67;;
7383;SDS011;3733;47.994;8.820;2022-11-27T09:17:35;14.27;;;9.47;;
7383;SDS011;3733;47.994;8.820;2022-11-27T09:20:01;10.63;;;7.40;;
7383;SDS011;3733;47.994;8.820;2022-11-27T09:22:27;14.70;;;8.23;;
7383;SDS011;3733;47.994;8.820;2022-11-27T09:24:53;13.77;;;8.67;;
7383;SDS011;3733;47.994;8.820;2022-11-27T09:27:18;9.30;;;7.13;;
7383;SDS011;3733;47.994;8.820;2022-11-27T09:29:44;9.97;;;6.90;;
7383;SDS011;3733;47.994;8.820;2022-11-27T09:32:10;8.60;;;6.20;;
7383;SDS011;3733;47.994;8.820;2022-11-27T09:34:36;7.10;;;5.53;;
7383;SDS011;3733;47.994;8.820;2022-11-27T09:37:02;7.60;;;4.90;;
7383;SDS011;3733;47.994;8.820;2022-11-27T09:39:29;11.03;;;5.77;;
7383;SDS011;3733;47.994;8.820;2022-11-27T09:41:58;10.43;;;5.70;;
7383;SDS011;3733;47.994;8.820;2022-11-27T09:49:58;7.70;;;6.00;;
7383;SDS011;3733;47.994;8.820;2022-11-27T09:55:30;9.67;;;6.47;;
7383;SDS011;3733;47.994;8.820;2022-11-27T09:58:42;12.77;;;6.80;;
7383;SDS011;3733;47.994;8.820;2022-11-27T10:01:11;11.30;;;6.80;;
7383;SDS011;3733;47.994;8.820;2022-11-27T10:03:42;11.50;;;6.80;;
7383;SDS011;3733;47.994;8.820;2022-11-27T10:16:54;9.33;;;6.20;;
7383;SDS011;3733;47.994;8.820;2022-11-27T10:19:34;11.87;;;6.60;;
7383;SDS011;3733;47.994;8.820;2022-11-27T10:22:30;13.80;;;6.17;;
7383;SDS011;3733;47.994;8.820;2022-11-27T10:25:23;10.10;;;5.90;;
7383;SDS011;3733;47.994;8.820;2022-11-27T10:30:21;11.87;;;6.60;;
7383;SDS011;3733;47.994;8.820;2022-11-27T10:32:48;11.03;;;6.37;;
7383;SDS011;3733;47.994;8.820;2022-11-27T10:35:18;11.20;;;7.47;;
7383;SDS011;3733;47.994;8.820;2022-11-27T10:37:50;11.00;;;7.83;;
7383;SDS011;3733;47.994;8.820;2022-11-27T10:43:01;11.10;;;7.03;;
7383;SDS011;3733;47.994;8.820;2022-11-27T10:45:41;12.07;;;6.90;;
7383;SDS011;3733;47.994;8.820;2022-11-27T10:48:14;14.73;;;7.83;;
7383;SDS011;3733;47.994;8.820;2022-11-27T10:50:40;14.20;;;8.63;;
7383;SDS011;3733;47.994;8.820;2022-11-27T10:53:08;11.90;;;7.83;;
7383;SDS011;3733;47.994;8.820;2022-11-27T11:01:01;15.03;;;9.00;;
7383;SDS011;3733;47.994;8.820;2022-11-27T11:03:35;16.90;;;10.67;;
7383;SDS011;3733;47.994;8.820;2022-11-27T11:06:04;14.30;;;9.20;;
7383;SDS011;3733;47.994;8.820;2022-11-27T11:08:32;16.43;;;9.20;;
7383;SDS011;3733;47.994;8.820;2022-11-27T11:11:00;17.23;;;9.53;;
7383;SDS011;3733;47.994;8.820;2022-11-27T11:18:40;14.00;;;9.03;;
7383;SDS011;3733;47.994;8.820;2022-11-27T11:21:26;19.30;;;10.67;;
7383;SDS011;3733;47.994;8.820;2022-11-27T11:23:59;20.50;;;10.47;;
7383;SDS011;3733;47.994;8.820;2022-11-27T11:26:43;20.40;;;11.13;;
7383;SDS011;3733;47.994;8.820;2022-11-27T11:31:55;16.07;;;8.80;;
7383;SDS011;3733;47.994;8.820;2022-11-27T11:34:26;21.23;;;10.17;;
7383;SDS011;3733;47.994;8.820;2022-11-27T11:39:43;18.47;;;10.00;;
7383;SDS011;3733;47.994;8.820;2022-11-27T11:42:20;14.33;;;8.90;;
7383;SDS011;3733;47.994;8.820;2022-11-27T11:44:59;18.07;;;10.23;;
7383;SDS011;3733;47.994;8.820;2022-11-27T11:47:28;15.80;;;9.10;;
7383;SDS011;3733;47.994;8.820;2022-11-27T11:49:54;18.80;;;9.60;;
7383;SDS011;3733;47.994;8.820;2022-11-27T11:58:17;15.90;;;10.27;;
7383;SDS011;3733;47.994;8.820;2022-11-27T12:09:30;19.93;;;10.30;;
7383;SDS011;3733;47.994;8.820;2022-11-27T12:12:22;18.20;;;10.90;;
7383;SDS011;3733;47.994;8.820;2022-11-27T12:20:18;28.03;;;12.30;;
7383;SDS011;3733;47.994;8.820;2022-11-27T12:25:34;17.10;;;10.60;;
7383;SDS011;3733;47.994;8.820;2022-11-27T12:31:00;23.20;;;11.50;;
7383;SDS011;3733;47.994;8.820;2022-11-27T12:44:03;14.93;;;9.73;;
7383;SDS011;3733;47.994;8.820;2022-11-27T12:46:53;19.93;;;10.20;;
7383;SDS011;3733;47.994;8.820;2022-11-27T12:52:19;16.97;;;10.00;;
7383;SDS011;3733;47.994;8.820;2022-11-27T12:55:05;16.30;;;10.17;;
7383;SDS011;3733;47.994;8.820;2022-11-27T12:57:46;21.23;;;11.03;;
7383;SDS011;3733;47.994;8.820;2022-11-27T13:00:19;20.83;;;10.93;;
7383;SDS011;3733;47.994;8.820;2022-11-27T13:05:20;22.03;;;10.73;;
7383;SDS011;3733;47.994;8.820;2022-11-27T13:08:01;19.50;;;11.47;;
7383;SDS011;3733;47.994;8.820;2022-11-27T13:13:23;20.90;;;12.83;;
7383;SDS011;3733;47.994;8.820;2022-11-27T13:16:04;24.17;;;12.97;;
7383;SDS011;3733;47.994;8.820;2022-11-27T13:21:12;22.33;;;11.87;;
7383;SDS011;3733;47.994;8.820;2022-11-27T13:23:42;18.63;;;11.33;;
7383;SDS011;3733;47.994;8.820;2022-11-27T13:26:12;21.60;;;11.30;;
7383;SDS011;3733;47.994;8.820;2022-11-27T13:28:45;18.10;;;11.23;;
7383;SDS011;3733;47.994;8.820;2022-11-27T13:31:23;20.70;;;11.07;;
7383;SDS011;3733;47.994;8.820;2022-11-27T13:34:03;19.90;;;10.97;;
7383;SDS011;3733;47.994;8.820;2022-11-27T13:36:37;20.50;;;10.73;;
7383;SDS011;3733;47.994;8.820;2022-11-27T13:39:05;21.43;;;11.40;;
7383;SDS011;3733;47.994;8.820;2022-11-27T13:41:45;19.40;;;11.30;;
7383;SDS011;3733;47.994;8.820;2022-11-27T13:44:20;24.80;;;13.10;;
7383;SDS011;3733;47.994;8.820;2022-11-27T13:46:48;21.70;;;11.57;;
7383;SDS011;3733;47.994;8.820;2022-11-27T13:49:25;17.90;;;11.03;;
7383;SDS011;3733;47.994;8.820;2022-11-27T13:52:04;19.60;;;12.00;;
7383;SDS011;3733;47.994;8.820;2022-11-27T13:54:54;23.80;;;12.90;;
7383;SDS011;3733;47.994;8.820;2022-11-27T13:57:24;22.10;;;12.23;;
7383;SDS011;3733;47.994;8.820;2022-11-27T14:02:37;19.70;;;11.43;;
7383;SDS011;3733;47.994;8.820;2022-11-27T14:05:11;21.10;;;11.60;;
7383;SDS011;3733;47.994;8.820;2022-11-27T14:07:43;22.23;;;11.90;;
7383;SDS011;3733;47.994;8.820;2022-11-27T14:10:15;21.37;;;11.60;;
7383;SDS011;3733;47.994;8.820;2022-11-27T14:13:03;27.53;;;12.50;;
7383;SDS011;3733;47.994;8.820;2022-11-27T14:15:32;27.00;;;15.37;;
7383;SDS011;3733;47.994;8.820;2022-11-27T14:23:25;21.30;;;12.20;;
7383;SDS011;3733;47.994;8.820;2022-11-27T14:25:59;21.10;;;12.90;;
7383;SDS011;3733;47.994;8.820;2022-11-27T14:28:31;22.17;;;13.10;;
7383;SDS011;3733;47.994;8.820;2022-11-27T14:31:01;22.13;;;12.23;;
7383;SDS011;3733;47.994;8.820;2022-11-27T14:33:28;22.73;;;12.90;;
7383;SDS011;3733;47.994;8.820;2022-11-27T14:35:56;22.43;;;12.43;;
7383;SDS011;3733;47.994;8.820;2022-11-27T14:38:23;25.90;;;12.90;;
7383;SDS011;3733;47.994;8.820;2022-11-27T14:40:51;29.97;;;13.63;;
7383;SDS011;3733;47.994;8.820;2022-11-27T14:43:21;27.20;;;13.63;;
7383;SDS011;3733;47.994;8.820;2022-11-27T14:45:54;20.70;;;11.63;;
7383;SDS011;3733;47.994;8.820;2022-11-27T14:48:23;25.53;;;14.60;;
7383;SDS011;3733;47.994;8.820;2022-11-27T14:50:51;28.00;;;14.93;;
7383;SDS011;3733;47.994;8.820;2022-11-27T14:53:19;29.27;;;14.97;;
7383;SDS011;3733;47.994;8.820;2022-11-27T14:55:47;27.57;;;14.03;;
7383;SDS011;3733;47.994;8.820;2022-11-27T14:58:21;27.00;;;15.37;;
7383;SDS011;3733;47.994;8.820;2022-11-27T15:03:27;30.67;;;15.93;;
7383;SDS011;3733;47.994;8.820;2022-11-27T15:05:54;23.93;;;12.60;;
7383;SDS011;3733;47.994;8.820;2022-11-27T15:08:22;26.43;;;15.00;;
7383;SDS011;3733;47.994;8.820;2022-11-27T15:10:51;27.03;;;15.63;;
7383;SDS011;3733;47.994;8.820;2022-11-27T15:13:36;26.63;;;16.10;;
7383;SDS011;3733;47.994;8.820;2022-11-27T15:16:04;24.27;;;12.57;;
7383;SDS011;3733;47.994;8.820;2022-11-27T15:18:42;21.43;;;12.67;;
7383;SDS011;3733;47.994;8.820;2022-11-27T15:21:17;27.03;;;14.47;;
7383;SDS011;3733;47.994;8.820;2022-11-27T15:23:45;25.90;;;13.47;;
7383;SDS011;3733;47.994;8.820;2022-11-27T15:26:14;24.13;;;12.40;;
7383;SDS011;3733;47.994;8.820;2022-11-27T15:28:54;23.63;;;13.37;;
7383;SDS011;3733;47.994;8.820;2022-11-27T15:31:25;24.73;;;13.67;;
7383;SDS011;3733;47.994;8.820;2022-11-27T15:33:58;24.90;;;13.70;;
7383;SDS011;3733;47.994;8.820;2022-11-27T15:36:32;24.80;;;13.20;;
7383;SDS011;3733;47.994;8.820;2022-11-27T15:39:17;30.90;;;14.30;;
7383;SDS011;3733;47.994;8.820;2022-11-27T15:44:21;28.10;;;13.53;;
7383;SDS011;3733;47.994;8.820;2022-11-27T15:46:48;22.10;;;13.20;;
7383;SDS011;3733;47.994;8.820;2022-11-27T15:49:15;22.70;;;12.57;;
7383;SDS011;3733;47.994;8.820;2022-11-27T15:51:41;23.20;;;12.73;;
7383;SDS011;3733;47.994;8.820;2022-11-27T15:54:07;23.90;;;12.80;;
7383;SDS011;3733;47.994;8.820;2022-11-27T15:56:33;24.47;;;12.40;;
7383;SDS011;3733;47.994;8.820;2022-11-27T15:58:59;21.33;;;12.93;;
7383;SDS011;3733;47.994;8.820;2022-11-27T16:01:24;24.53;;;12.70;;
7383;SDS011;3733;47.994;8.820;2022-11-27T16:03:50;24.47;;;12.83;;
7383;SDS011;3733;47.994;8.820;2022-11-27T16:06:15;21.90;;;12.57;;
7383;SDS011;3733;47.994;8.820;2022-11-27T16:08:41;25.23;;;13.53;;
7383;SDS011;3733;47.994;8.820;2022-11-27T16:11:07;28.63;;;15.40;;
7383;SDS011;3733;47.994;8.820;2022-11-27T16:13:38;24.50;;;13.70;;
7383;SDS011;3733;47.994;8.820;2022-11-27T16:16:04;22.70;;;12.53;;
7383;SDS011;3733;47.994;8.820;2022-11-27T16:18:31;31.30;;;14.83;;
7383;SDS011;3733;47.994;8.820;2022-11-27T16:21:05;24.93;;;14.00;;
7383;SDS011;3733;47.994;8.820;2022-11-27T16:23:36;22.73;;;13.40;;
7383;SDS011;3733;47.994;8.820;2022-11-27T16:26:03;23.40;;;13.37;;
7383;SDS011;3733;47.994;8.820;2022-11-27T16:28:29;23.20;;;13.43;;
7383;SDS011;3733;47.994;8.820;2022-11-27T16:30:56;29.20;;;15.87;;
7383;SDS011;3733;47.994;8.820;2022-11-27T16:33:29;26.00;;;13.07;;
7383;SDS011;3733;47.994;8.820;2022-11-27T16:36:02;31.53;;;14.00;;
7383;SDS011;3733;47.994;8.820;2022-11-27T16:38:32;25.23;;;13.10;;
7383;SDS011;3733;47.994;8.820;2022-11-27T16:40:58;26.50;;;14.50;;
7383;SDS011;3733;47.994;8.820;2022-11-27T16:43:25;25.37;;;13.50;;
7383;SDS011;3733;47.994;8.820;2022-11-27T16:45:52;24.77;;;13.70;;
7383;SDS011;3733;47.994;8.820;2022-11-27T16:48:18;25.90;;;13.43;;
7383;SDS011;3733;47.994;8.820;2022-11-27T16:50:43;25.50;;;14.70;;
7383;SDS011;3733;47.994;8.820;2022-11-27T16:53:09;25.00;;;13.17;;
7383;SDS011;3733;47.994;8.820;2022-11-27T16:55:35;23.87;;;12.73;;
7383;SDS011;3733;47.994;8.820;2022-11-27T16:58:00;26.00;;;13.93;;
7383;SDS011;3733;47.994;8.820;2022-11-27T17:00:26;23.47;;;14.60;;
7383;SDS011;3733;47.994;8.820;2022-11-27T17:02:51;22.30;;;14.03;;
7383;SDS011;3733;47.994;8.820;2022-11-27T17:05:17;28.80;;;15.83;;
7383;SDS011;3733;47.994;8.820;2022-11-27T17:07:42;29.20;;;16.10;;
7383;SDS011;3733;47.994;8.820;2022-11-27T17:10:08;28.90;;;14.90;;
7383;SDS011;3733;47.994;8.820;2022-11-27T17:12:34;24.97;;;14.10;;
7383;SDS011;3733;47.994;8.820;2022-11-27T17:15:00;32.60;;;15.17;;
7383;SDS011;3733;47.994;8.820;2022-11-27T17:17:26;25.27;;;15.07;;